Time,TemperatureF,DewpointF,PressureIn,WindDirection,WindDirectionDegrees,WindSpeedMPH,WindSpeedGustMPH,Humidity,HourlyPrecipIn,Conditions,Clouds,dailyrainin,SoftwareType,DateUTC
2013-04-24 00:14:00,70.3,62.0,30.07,SE,134,0.0,0.0,76,0.00,,,0.00,weatherlink.com 1.10,2013-04-24 04:14:00,
2013-04-24 00:29:00,70.1,63.0,30.07,ESE,103,0.0,1.0,78,0.00,,,0.00,weatherlink.com 1.10,2013-04-24 04:29:00,
2013-04-24 00:44:00,70.9,63.0,30.07,ENE,70,0.0,4.0,76,0.00,,,0.00,weatherlink.com 1.10,2013-04-24 04:44:00,
2013-04-24 00:59:00,71.8,62.0,30.06,ENE,68,1.0,4.0,72,0.00,,,0.00,weatherlink.com 1.10,2013-04-24 04:59:00,
2013-04-24 01:14:00,71.9,62.0,30.06,SE,136,0.0,4.0,71,0.00,,,0.00,weatherlink.com 1.10,2013-04-24 05:14:00,
2013-04-24 01:29:00,71.8,62.0,30.05,ENE,65,0.0,3.0,71,0.00,,,0.00,weatherlink.com 1.10,2013-04-24 05:29:00,
2013-04-24 01:44:00,71.7,62.0,30.05,East,98,1.0,3.0,72,0.00,,,0.00,weatherlink.com 1.10,2013-04-24 05:44:00,
2013-04-24 01:59:00,71.6,62.0,30.04,East,86,0.0,3.0,72,0.00,,,0.00,weatherlink.com 1.10,2013-04-24 05:59:00,
2013-04-24 02:15:00,71.0,62.0,30.03,North,9,1.0,3.0,73,0.00,,,0.00,weatherlink.com 1.10,2013-04-24 06:15:00,
2013-04-24 02:29:00,71.1,62.0,30.03,East,101,0.0,3.0,73,0.00,,,0.00,weatherlink.com 1.10,2013-04-24 06:29:00,
2013-04-24 02:44:00,71.1,62.0,30.02,ESE,108,1.0,7.0,74,0.00,,,0.00,weatherlink.com 1.10,2013-04-24 06:44:00,
2013-04-24 02:59:00,71.6,63.0,30.02,ESE,113,2.0,6.0,73,0.00,,,0.00,weatherlink.com 1.10,2013-04-24 06:59:00,
2013-04-24 03:14:00,71.4,62.0,30.02,East,79,0.0,3.0,73,0.00,,,0.00,weatherlink.com 1.10,2013-04-24 07:14:00,
2013-04-24 03:29:00,70.7,62.0,30.02,ESE,114,0.0,1.0,74,0.00,,,0.00,weatherlink.com 1.10,2013-04-24 07:29:00,
2013-04-24 03:44:00,70.0,62.0,30.02,ENE,69,0.0,1.0,75,0.00,,,0.00,weatherlink.com 1.10,2013-04-24 07:44:00,
2013-04-24 03:59:00,68.3,61.0,30.02,ESE,107,1.0,1.0,77,0.00,,,0.00,weatherlink.com 1.10,2013-04-24 07:59:00,
2013-04-24 04:14:00,66.9,62.0,30.02,ESE,104,0.0,0.0,83,0.00,,,0.00,weatherlink.com 1.10,2013-04-24 08:14:00,
2013-04-24 04:29:00,65.7,62.0,30.02,ENE,72,0.0,0.0,87,0.00,,,0.00,weatherlink.com 1.10,2013-04-24 08:29:00,
2013-04-24 04:45:00,65.0,62.0,30.02,ENE,60,0.0,1.0,89,0.00,,,0.00,weatherlink.com 1.10,2013-04-24 08:45:00,
2013-04-24 05:00:00,64.2,61.0,30.02,ENE,59,0.0,0.0,90,0.00,,,0.00,weatherlink.com 1.10,2013-04-24 09:00:00,
2013-04-24 05:15:00,64.6,62.0,30.03,ESE,111,0.0,1.0,91,0.00,,,0.00,weatherlink.com 1.10,2013-04-24 09:15:00,
2013-04-24 05:30:00,64.2,62.0,30.03,ESE,111,0.0,0.0,92,0.00,,,0.00,weatherlink.com 1.10,2013-04-24 09:30:00,
2013-04-24 05:45:00,64.7,62.0,30.03,SE,127,0.0,0.0,92,0.00,,,0.00,weatherlink.com 1.10,2013-04-24 09:45:00,
2013-04-24 06:00:00,64.8,63.0,30.04,SE,127,0.0,1.0,93,0.00,,,0.00,weatherlink.com 1.10,2013-04-24 10:00:00,
2013-04-24 06:15:00,64.6,63.0,30.04,ENE,77,0.0,0.0,93,0.00,,,0.00,weatherlink.com 1.10,2013-04-24 10:15:00,
2013-04-24 06:30:00,64.8,63.0,30.04,ENE,66,0.0,1.0,95,0.00,,,0.00,weatherlink.com 1.10,2013-04-24 10:30:00,
2013-04-24 06:45:00,64.6,63.0,30.05,ENE,68,0.0,0.0,94,0.00,,,0.00,weatherlink.com 1.10,2013-04-24 10:45:00,
2013-04-24 07:00:00,64.5,63.0,30.05,ENE,68,0.0,0.0,95,0.00,,,0.00,weatherlink.com 1.10,2013-04-24 11:00:00,
2013-04-24 07:15:00,65.0,64.0,30.06,East,98,0.0,1.0,95,0.00,,,0.00,weatherlink.com 1.10,2013-04-24 11:15:00,
2013-04-24 07:30:00,66.0,65.0,30.06,East,98,0.0,0.0,96,0.00,,,0.00,weatherlink.com 1.10,2013-04-24 11:30:00,
2013-04-24 07:45:00,67.3,66.0,30.07,East,98,0.0,0.0,96,0.00,,,0.00,weatherlink.com 1.10,2013-04-24 11:45:00,
2013-04-24 08:00:00,68.4,67.0,30.07,East,98,0.0,0.0,96,0.00,,,0.00,weatherlink.com 1.10,2013-04-24 12:00:00,
2013-04-24 08:15:00,71.8,70.0,30.08,East,97,0.0,0.0,94,0.00,,,0.00,weatherlink.com 1.10,2013-04-24 12:15:00,
2013-04-24 08:30:00,75.2,69.0,30.08,ENE,75,0.0,2.0,80,0.00,,,0.00,weatherlink.com 1.10,2013-04-24 12:30:00,
2013-04-24 08:45:00,76.8,66.0,30.08,NE,44,3.0,5.0,69,0.00,,,0.00,weatherlink.com 1.10,2013-04-24 12:45:00,
2013-04-24 09:00:00,77.2,66.0,30.08,ENE,60,6.0,7.0,68,0.00,,,0.00,weatherlink.com 1.10,2013-04-24 13:00:00,
2013-04-24 09:15:00,77.4,64.0,30.09,ESE,108,3.0,10.0,64,0.00,,,0.00,weatherlink.com 1.10,2013-04-24 13:15:00,
2013-04-24 09:30:00,77.9,65.0,30.09,East,81,4.0,11.0,64,0.00,,,0.00,weatherlink.com 1.10,2013-04-24 13:30:00,
2013-04-24 09:45:00,78.0,64.0,30.09,SE,128,4.0,9.0,63,0.00,,,0.00,weatherlink.com 1.10,2013-04-24 13:45:00,
2013-04-24 10:00:00,78.2,64.0,30.10,East,86,5.0,10.0,62,0.00,,,0.00,weatherlink.com 1.10,2013-04-24 14:00:00,
2013-04-24 10:15:00,78.5,64.0,30.10,SE,138,5.0,10.0,62,0.00,,,0.00,weatherlink.com 1.10,2013-04-24 14:15:00,
2013-04-24 10:30:00,79.1,65.0,30.10,ENE,61,3.0,11.0,62,0.00,,,0.00,weatherlink.com 1.10,2013-04-24 14:30:00,
2013-04-24 10:45:00,78.8,66.0,30.11,East,96,4.0,9.0,64,0.00,,,0.00,weatherlink.com 1.10,2013-04-24 14:45:00,
2013-04-24 11:00:00,78.9,66.0,30.11,ESE,110,6.0,7.0,64,0.00,,,0.00,weatherlink.com 1.10,2013-04-24 15:00:00,
2013-04-24 11:15:00,79.4,65.0,30.11,ENE,58,4.0,11.0,61,0.00,,,0.00,weatherlink.com 1.10,2013-04-24 15:15:00,
2013-04-24 11:30:00,79.8,65.0,30.10,ESE,116,5.0,11.0,61,0.00,,,0.00,weatherlink.com 1.10,2013-04-24 15:30:00,
2013-04-24 11:45:00,80.1,65.0,30.10,SE,138,3.0,10.0,61,0.00,,,0.00,weatherlink.com 1.10,2013-04-24 15:45:00,
2013-04-24 12:00:00,79.8,66.0,30.10,ESE,118,3.0,12.0,63,0.00,,,0.00,weatherlink.com 1.10,2013-04-24 16:00:00,
2013-04-24 12:15:00,80.5,64.0,30.09,East,79,8.0,10.0,58,0.00,,,0.00,weatherlink.com 1.10,2013-04-24 16:15:00,
2013-04-24 12:30:00,81.1,66.0,30.09,East,85,2.0,11.0,61,0.00,,,0.00,weatherlink.com 1.10,2013-04-24 16:30:00,
2013-04-24 12:45:00,80.9,65.0,30.08,ESE,108,2.0,11.0,59,0.00,,,0.00,weatherlink.com 1.10,2013-04-24 16:45:00,
2013-04-24 13:00:00,81.4,66.0,30.08,ESE,102,4.0,10.0,59,0.00,,,0.00,weatherlink.com 1.10,2013-04-24 17:00:00,
2013-04-24 13:15:00,81.1,67.0,30.08,ESE,108,7.0,11.0,62,0.00,,,0.00,weatherlink.com 1.10,2013-04-24 17:15:00,
2013-04-24 13:30:00,81.2,65.0,30.08,East,94,9.0,12.0,59,0.00,,,0.00,weatherlink.com 1.10,2013-04-24 17:30:00,
2013-04-24 13:45:00,81.3,66.0,30.08,East,86,4.0,8.0,59,0.00,,,0.00,weatherlink.com 1.10,2013-04-24 17:45:00,
2013-04-24 14:00:00,81.6,66.0,30.07,ENE,65,2.0,8.0,60,0.00,,,0.00,weatherlink.com 1.10,2013-04-24 18:00:00,
2013-04-24 14:15:00,81.2,64.0,30.07,ESE,114,3.0,9.0,57,0.00,,,0.00,weatherlink.com 1.10,2013-04-24 18:15:00,
2013-04-24 14:30:00,81.4,67.0,30.07,NNE,19,2.0,8.0,61,0.00,,,0.00,weatherlink.com 1.10,2013-04-24 18:30:00,
2013-04-24 14:45:00,81.2,64.0,30.07,East,96,3.0,10.0,56,0.00,,,0.00,weatherlink.com 1.10,2013-04-24 18:45:00,
2013-04-24 15:00:00,81.5,64.0,30.06,ESE,104,2.0,9.0,56,0.00,,,0.00,weatherlink.com 1.10,2013-04-24 19:00:00,
2013-04-24 15:15:00,81.1,66.0,30.06,ESE,106,4.0,8.0,60,0.00,,,0.00,weatherlink.com 1.10,2013-04-24 19:15:00,
2013-04-24 15:31:00,81.7,66.0,30.05,East,81,3.0,7.0,59,0.00,,,0.00,weatherlink.com 1.10,2013-04-24 19:31:00,
2013-04-24 15:46:00,81.1,64.0,30.05,SSE,148,3.0,9.0,56,0.00,,,0.00,weatherlink.com 1.10,2013-04-24 19:46:00,
2013-04-24 16:01:00,82.4,66.0,30.05,SE,127,2.0,8.0,57,0.00,,,0.00,weatherlink.com 1.10,2013-04-24 20:01:00,
2013-04-24 16:16:00,81.3,65.0,30.05,SE,129,4.0,8.0,58,0.00,,,0.00,weatherlink.com 1.10,2013-04-24 20:16:00,
2013-04-24 16:31:00,81.2,66.0,30.04,East,96,4.0,7.0,60,0.00,,,0.00,weatherlink.com 1.10,2013-04-24 20:31:00,
2013-04-24 16:46:00,81.9,66.0,30.04,ESE,120,0.0,7.0,58,0.00,,,0.00,weatherlink.com 1.10,2013-04-24 20:46:00,
2013-04-24 17:01:00,82.0,65.0,30.04,East,101,3.0,7.0,56,0.00,,,0.00,weatherlink.com 1.10,2013-04-24 21:01:00,
2013-04-24 17:16:00,81.0,65.0,30.05,ESE,117,3.0,7.0,59,0.00,,,0.00,weatherlink.com 1.10,2013-04-24 21:16:00,
2013-04-24 17:31:00,80.2,65.0,30.05,ESE,104,2.0,6.0,60,0.00,,,0.00,weatherlink.com 1.10,2013-04-24 21:31:00,
2013-04-24 17:46:00,81.2,65.0,30.05,ENE,65,1.0,5.0,59,0.00,,,0.00,weatherlink.com 1.10,2013-04-24 21:46:00,
2013-04-24 18:01:00,81.1,66.0,30.05,SE,146,3.0,9.0,61,0.00,,,0.00,weatherlink.com 1.10,2013-04-24 22:01:00,
2013-04-24 18:16:00,80.4,66.0,30.06,SE,135,4.0,7.0,62,0.00,,,0.00,weatherlink.com 1.10,2013-04-24 22:16:00,
2013-04-24 18:31:00,80.7,66.0,30.06,ESE,112,2.0,5.0,61,0.00,,,0.00,weatherlink.com 1.10,2013-04-24 22:31:00,
2013-04-24 18:46:00,80.3,66.0,30.06,East,96,2.0,7.0,62,0.00,,,0.00,weatherlink.com 1.10,2013-04-24 22:46:00,
2013-04-24 19:01:00,79.7,65.0,30.07,ESE,117,4.0,7.0,62,0.00,,,0.00,weatherlink.com 1.10,2013-04-24 23:01:00,
2013-04-24 19:16:00,78.8,66.0,30.07,ESE,107,3.0,6.0,64,0.00,,,0.00,weatherlink.com 1.10,2013-04-24 23:16:00,
2013-04-24 19:31:00,78.0,65.0,30.07,ESE,117,3.0,7.0,65,0.00,,,0.00,weatherlink.com 1.10,2013-04-24 23:31:00,
2013-04-24 19:46:00,76.9,65.0,30.07,East,98,2.0,5.0,66,0.00,,,0.00,weatherlink.com 1.10,2013-04-24 23:46:00,
2013-04-24 20:01:00,76.3,65.0,30.08,ESE,114,3.0,5.0,67,0.00,,,0.00,weatherlink.com 1.10,2013-04-25 00:01:00,
2013-04-24 20:16:00,76.2,65.0,30.09,East,79,3.0,5.0,69,0.00,,,0.00,weatherlink.com 1.10,2013-04-25 00:16:00,
2013-04-24 20:31:00,75.9,65.0,30.09,ESE,113,0.0,3.0,70,0.00,,,0.00,weatherlink.com 1.10,2013-04-25 00:31:00,
2013-04-24 20:46:00,75.6,66.0,30.09,SE,134,0.0,5.0,72,0.00,,,0.00,weatherlink.com 1.10,2013-04-25 00:46:00,
2013-04-24 21:01:00,75.3,66.0,30.09,East,98,0.0,3.0,72,0.00,,,0.00,weatherlink.com 1.10,2013-04-25 01:01:00,
2013-04-24 21:16:00,75.3,67.0,30.09,East,101,1.0,5.0,74,0.00,,,0.00,weatherlink.com 1.10,2013-04-25 01:16:00,
2013-04-24 21:31:00,75.2,67.0,30.10,ESE,110,1.0,4.0,75,0.00,,,0.00,weatherlink.com 1.10,2013-04-25 01:31:00,
2013-04-24 21:46:00,75.1,66.0,30.10,East,99,2.0,3.0,74,0.00,,,0.00,weatherlink.com 1.10,2013-04-25 01:46:00,
2013-04-24 22:01:00,75.1,66.0,30.11,East,86,3.0,4.0,74,0.00,,,0.00,weatherlink.com 1.10,2013-04-25 02:01:00,
2013-04-24 22:16:00,75.1,66.0,30.11,SE,128,2.0,5.0,74,0.00,,,0.00,weatherlink.com 1.10,2013-04-25 02:16:00,
2013-04-24 22:31:00,74.8,66.0,30.11,ESE,117,1.0,4.0,74,0.00,,,0.00,weatherlink.com 1.10,2013-04-25 02:31:00,
2013-04-24 22:46:00,74.6,65.0,30.11,ESE,122,2.0,4.0,73,0.00,,,0.00,weatherlink.com 1.10,2013-04-25 02:46:00,
2013-04-24 23:01:00,74.4,65.0,30.11,East,92,2.0,3.0,72,0.00,,,0.00,weatherlink.com 1.10,2013-04-25 03:01:00,
2013-04-24 23:16:00,74.2,65.0,30.11,ESE,107,1.0,4.0,72,0.00,,,0.00,weatherlink.com 1.10,2013-04-25 03:16:00,
2013-04-24 23:32:00,73.7,65.0,30.11,East,94,1.0,4.0,73,0.00,,,0.00,weatherlink.com 1.10,2013-04-25 03:32:00,
2013-04-24 23:47:00,73.6,65.0,30.11,East,101,2.0,4.0,74,0.00,,,0.00,weatherlink.com 1.10,2013-04-25 03:47:00,